Time;durP1;ratioP1;P1;durP2;ratioP2;P2;SDS_P1;SDS_P2;PMS_P1;PMS_P2;Temp;Humidity;BMP_temperature;BMP_pressure;BME280_temperature;BME280_humidity;BME280_pressure;Samples;Min_cycle;Max_cycle;Signal;HPM_P1;HPM_P2
2022/04/29 00:02:14;;;;;;;10.35;8.63;;;5.10;99.90;;;;;;5133884;27;20042;-50
2022/04/29 00:04:42;;;;;;;10.35;8.40;;;5.10;99.90;;;;;;5112878;27;21414;-50
2022/04/29 00:07:09;;;;;;;12.25;9.10;;;5.00;99.90;;;;;;5126953;27;20054;-47
2022/04/29 00:09:35;;;;;;;11.77;8.40;;;5.00;99.90;;;;;;5128298;27;20057;-47
2022/04/29 00:12:03;;;;;;;13.00;7.95;;;5.00;99.90;;;;;;5127171;27;20076;-53
2022/04/29 00:14:30;;;;;;;11.10;7.20;;;4.90;99.90;;;;;;5125865;27;20051;-48
2022/04/29 00:16:56;;;;;;;9.68;8.40;;;4.80;99.90;;;;;;5144533;27;20580;-48
2022/04/29 00:19:22;;;;;;;16.23;9.68;;;4.80;99.90;;;;;;5139635;27;20396;-49
2022/04/29 00:21:48;;;;;;;13.05;8.70;;;4.80;99.90;;;;;;5123440;27;20129;-50
2022/04/29 00:24:14;;;;;;;9.23;8.32;;;4.80;99.90;;;;;;5145007;27;20046;-49
2022/04/29 00:26:40;;;;;;;10.63;7.57;;;4.70;99.90;;;;;;5126220;27;20401;-48
2022/04/29 00:29:07;;;;;;;12.20;7.90;;;4.70;99.90;;;;;;5118616;27;20077;-50
2022/04/29 00:31:33;;;;;;;14.50;8.02;;;4.70;99.90;;;;;;5121644;27;20531;-53
2022/04/29 00:33:59;;;;;;;12.20;8.00;;;4.70;99.90;;;;;;5143832;27;20047;-46
2022/04/29 00:36:25;;;;;;;15.05;7.90;;;4.70;99.90;;;;;;5127367;27;20076;-48
2022/04/29 00:38:51;;;;;;;13.05;7.90;;;4.70;99.90;;;;;;5132138;27;20220;-56
2022/04/29 00:41:22;;;;;;;10.93;8.40;;;4.70;99.90;;;;;;5136767;27;20050;-46
2022/04/29 00:44:09;;;;;;;13.32;8.77;;;4.70;99.90;;;;;;5132529;27;20039;-49
2022/04/29 00:46:40;;;;;;;11.30;7.97;;;4.70;99.90;;;;;;5122102;27;20047;-47
2022/04/29 00:49:07;;;;;;;19.77;8.60;;;4.70;99.90;;;;;;5122023;27;20043;-49
2022/04/29 00:51:33;;;;;;;17.00;8.55;;;4.70;99.90;;;;;;5138248;27;20264;-51
2022/04/29 00:54:02;;;;;;;10.75;8.13;;;4.70;99.90;;;;;;5133943;27;20108;-46
2022/04/29 00:56:30;;;;;;;11.82;7.93;;;4.70;99.90;;;;;;5117884;27;20531;-50
2022/04/29 00:59:04;;;;;;;11.23;8.10;;;4.70;99.90;;;;;;5122465;27;20495;-45
2022/04/29 01:01:34;;;;;;;11.73;8.82;;;4.60;99.90;;;;;;5110571;27;20837;-48
2022/04/29 01:04:02;;;;;;;12.80;8.60;;;4.60;99.90;;;;;;5137095;27;20065;-47
2022/04/29 01:06:28;;;;;;;14.10;9.60;;;4.60;99.90;;;;;;5123174;27;20050;-47
2022/04/29 01:08:54;;;;;;;12.45;8.60;;;4.70;99.90;;;;;;5131396;27;20481;-50
2022/04/29 01:11:23;;;;;;;13.73;9.20;;;4.70;99.90;;;;;;5115156;27;20574;-48
2022/04/29 01:13:50;;;;;;;12.25;8.50;;;4.60;99.90;;;;;;5122446;27;20083;-48
2022/04/29 01:16:17;;;;;;;10.02;7.35;;;4.60;99.90;;;;;;5137129;27;20424;-46
2022/04/29 01:18:43;;;;;;;9.23;7.30;;;4.50;99.90;;;;;;5138188;27;20051;-47
2022/04/29 01:21:09;;;;;;;12.13;7.90;;;4.40;99.90;;;;;;5105296;27;20424;-47
2022/04/29 01:23:35;;;;;;;14.00;8.93;;;4.40;99.90;;;;;;5102919;27;20051;-45
2022/04/29 01:26:02;;;;;;;12.18;8.80;;;4.40;99.90;;;;;;5131721;27;20151;-47
2022/04/29 01:28:30;;;;;;;14.48;8.93;;;4.40;99.90;;;;;;5087092;27;20143;-50
2022/04/29 01:30:57;;;;;;;13.98;9.40;;;4.40;99.90;;;;;;5103112;27;20058;-46
2022/04/29 01:33:25;;;;;;;14.98;8.10;;;4.40;99.90;;;;;;5103274;27;20073;-47
2022/04/29 01:35:51;;;;;;;11.32;8.68;;;4.40;99.90;;;;;;5122486;27;20054;-50
2022/04/29 01:38:17;;;;;;;14.55;8.68;;;4.50;99.90;;;;;;5131418;27;20046;-47
2022/04/29 01:40:43;;;;;;;15.80;9.43;;;4.50;99.90;;;;;;5121968;27;20047;-50
2022/04/29 01:43:09;;;;;;;14.80;8.02;;;4.40;99.90;;;;;;5121298;27;20070;-51
2022/04/29 01:45:37;;;;;;;12.20;9.00;;;4.50;99.90;;;;;;5134559;27;20132;-50
2022/04/29 01:48:03;;;;;;;12.77;8.43;;;4.50;99.90;;;;;;5116642;27;20051;-53
2022/04/29 01:50:34;;;;;;;15.90;9.48;;;4.50;99.90;;;;;;5141732;27;20051;-49
2022/04/29 01:52:59;;;;;;;15.32;8.75;;;4.50;99.90;;;;;;5139287;27;20051;-49
2022/04/29 01:55:25;;;;;;;15.32;9.48;;;4.60;99.90;;;;;;5122661;27;20486;-45
2022/04/29 01:57:51;;;;;;;14.45;8.70;;;4.60;99.90;;;;;;5113084;27;20075;-46
2022/04/29 02:00:17;;;;;;;17.02;8.48;;;4.60;99.90;;;;;;5119544;27;20094;-50
2022/04/29 02:02:43;;;;;;;12.02;8.10;;;4.60;99.90;;;;;;5118890;27;20491;-47
2022/04/29 02:05:11;;;;;;;12.00;8.85;;;4.60;99.90;;;;;;5121707;27;20446;-49
2022/04/29 02:07:36;;;;;;;10.45;8.20;;;4.60;99.90;;;;;;5121164;27;20069;-48
2022/04/29 02:10:03;;;;;;;18.80;8.25;;;4.50;99.90;;;;;;5125323;27;20051;-47
2022/04/29 02:12:28;;;;;;;15.20;9.18;;;4.50;99.90;;;;;;5120373;27;20123;-46
2022/04/29 02:14:54;;;;;;;10.52;9.13;;;4.50;99.90;;;;;;5120367;27;20058;-48
2022/04/29 02:17:20;;;;;;;16.23;9.40;;;4.50;99.90;;;;;;5115378;27;20120;-52
2022/04/29 02:19:46;;;;;;;17.77;10.57;;;4.50;99.90;;;;;;5115202;27;20564;-51
2022/04/29 02:22:11;;;;;;;14.13;8.55;;;4.50;99.90;;;;;;5136366;27;20047;-49
2022/04/29 02:24:37;;;;;;;14.10;8.43;;;4.50;99.90;;;;;;5140992;27;20047;-49
2022/04/29 02:27:04;;;;;;;10.80;8.48;;;4.40;99.90;;;;;;5124390;27;20058;-51
2022/04/29 02:29:30;;;;;;;11.52;8.15;;;4.40;99.90;;;;;;5121169;27;20084;-44
2022/04/29 02:31:57;;;;;;;13.93;7.93;;;4.40;99.90;;;;;;5123784;27;20146;-47
2022/04/29 02:34:23;;;;;;;10.75;7.85;;;4.40;99.90;;;;;;5120681;27;20112;-48
2022/04/29 02:36:49;;;;;;;10.80;8.27;;;4.30;99.90;;;;;;5105249;27;20293;-48
2022/04/29 02:39:15;;;;;;;13.65;8.10;;;4.30;99.90;;;;;;5086730;28;20096;-47
2022/04/29 02:41:41;;;;;;;13.40;8.18;;;4.30;99.90;;;;;;5092566;28;20044;-51
2022/04/29 02:44:07;;;;;;;15.60;8.82;;;4.30;99.90;;;;;;5079558;28;20048;-49
2022/04/29 02:46:33;;;;;;;11.32;8.23;;;4.30;99.90;;;;;;5087759;28;20406;-48
2022/04/29 02:48:59;;;;;;;13.77;8.27;;;4.30;99.90;;;;;;5099875;28;20510;-48
2022/04/29 02:51:25;;;;;;;13.18;8.90;;;4.30;99.90;;;;;;5098277;28;20036;-46
2022/04/29 02:53:51;;;;;;;12.10;8.45;;;4.30;99.90;;;;;;5082552;28;20055;-50
2022/04/29 02:56:18;;;;;;;12.48;8.32;;;4.30;99.90;;;;;;5082911;28;20059;-49
2022/04/29 02:58:44;;;;;;;13.15;8.50;;;4.30;99.90;;;;;;5086343;28;20056;-51
2022/04/29 03:01:11;;;;;;;12.57;8.02;;;4.30;99.90;;;;;;5100948;28;20039;-48
2022/04/29 03:03:38;;;;;;;14.23;7.85;;;4.40;99.90;;;;;;5081953;28;20379;-53
2022/04/29 03:06:03;;;;;;;14.07;7.57;;;4.30;99.90;;;;;;5099278;28;20662;-51
2022/04/29 03:08:29;;;;;;;11.75;8.00;;;4.30;99.90;;;;;;5093449;28;20060;-44
2022/04/29 03:10:55;;;;;;;13.55;8.13;;;4.30;99.90;;;;;;5104633;28;20075;-44
2022/04/29 03:13:21;;;;;;;10.82;7.43;;;4.30;99.90;;;;;;5085645;28;20050;-49
2022/04/29 03:15:47;;;;;;;16.23;9.25;;;4.30;99.90;;;;;;5086061;28;20048;-48
2022/04/29 03:18:19;;;;;;;16.83;8.77;;;4.20;99.90;;;;;;5086643;28;20051;-50
2022/04/29 03:20:47;;;;;;;13.30;8.18;;;4.20;99.90;;;;;;5085107;28;20138;-48
2022/04/29 03:23:13;;;;;;;16.60;8.15;;;4.30;99.90;;;;;;5084702;28;20073;-51
2022/04/29 03:25:42;;;;;;;13.82;8.32;;;4.30;99.90;;;;;;5104502;28;20417;-50
2022/04/29 03:28:09;;;;;;;11.50;8.70;;;4.20;99.90;;;;;;5104246;28;20500;-49
2022/04/29 03:30:36;;;;;;;14.00;8.18;;;4.20;99.90;;;;;;5104006;28;20535;-47
2022/04/29 03:33:04;;;;;;;15.35;8.60;;;4.20;99.90;;;;;;5103428;28;20052;-47
2022/04/29 03:35:29;;;;;;;11.05;8.25;;;4.30;99.90;;;;;;5085390;28;20646;-45
2022/04/29 03:37:55;;;;;;;10.45;7.93;;;4.20;99.90;;;;;;5082639;28;20063;-47
2022/04/29 03:40:23;;;;;;;16.08;9.07;;;4.20;99.90;;;;;;5103697;28;20043;-51
2022/04/29 03:42:50;;;;;;;14.50;9.15;;;4.20;99.90;;;;;;5085320;28;20062;-49
2022/04/29 03:45:16;;;;;;;15.65;8.85;;;4.30;99.90;;;;;;5103238;28;20051;-48
2022/04/29 03:47:42;;;;;;;11.35;8.60;;;4.30;99.90;;;;;;5103608;28;20039;-47
2022/04/29 03:50:09;;;;;;;11.75;8.05;;;4.30;99.90;;;;;;5102962;28;20114;-46
2022/04/29 03:52:48;;;;;;;15.50;9.10;;;4.40;99.90;;;;;;5102812;28;20480;-48
2022/04/29 03:55:14;;;;;;;12.18;8.70;;;4.40;99.90;;;;;;5101458;28;20537;-50
2022/04/29 03:57:40;;;;;;;14.63;8.93;;;4.40;99.90;;;;;;5082622;28;20689;-50
2022/04/29 04:00:07;;;;;;;11.60;7.70;;;4.40;99.90;;;;;;5083250;28;20040;-48
2022/04/29 04:02:33;;;;;;;12.05;8.35;;;4.40;99.90;;;;;;5084155;28;20052;-49
2022/04/29 04:04:58;;;;;;;13.73;8.73;;;4.40;99.90;;;;;;5104058;28;20051;-49
2022/04/29 04:07:24;;;;;;;14.32;8.45;;;4.40;99.90;;;;;;5085271;28;20494;-48
2022/04/29 04:09:49;;;;;;;15.95;9.23;;;4.40;99.90;;;;;;5093688;28;20048;-48
2022/04/29 04:12:16;;;;;;;14.23;9.52;;;4.40;99.90;;;;;;5092022;28;20851;-49
2022/04/29 04:14:42;;;;;;;12.15;8.52;;;4.50;99.90;;;;;;5103649;28;20051;-52
2022/04/29 04:17:08;;;;;;;16.30;9.73;;;4.50;99.90;;;;;;5101177;28;20052;-48
2022/04/29 04:19:35;;;;;;;12.25;8.88;;;4.50;99.90;;;;;;5080646;28;20491;-43
2022/04/29 04:22:01;;;;;;;13.73;8.88;;;4.50;99.90;;;;;;5083723;28;20873;-48
2022/04/29 04:24:28;;;;;;;13.80;8.60;;;4.50;99.90;;;;;;5094768;28;20051;-48
2022/04/29 04:26:54;;;;;;;14.93;9.52;;;4.50;99.90;;;;;;5087319;28;20031;-46
2022/04/29 04:29:22;;;;;;;14.73;8.95;;;4.50;99.90;;;;;;5102852;28;20082;-47
2022/04/29 04:31:48;;;;;;;14.73;8.93;;;4.50;99.90;;;;;;5101234;28;20130;-48
2022/04/29 04:36:59;;;;;;;18.90;9.50;;;4.60;99.90;;;;;;5092037;28;20664;-51
2022/04/29 04:39:25;;;;;;;12.50;10.15;;;4.70;99.90;;;;;;5084514;28;20126;-45
2022/04/29 04:41:51;;;;;;;13.82;10.30;;;4.80;99.90;;;;;;5101893;28;20078;-51
2022/04/29 04:44:20;;;;;;;17.63;10.13;;;4.80;99.90;;;;;;5084871;28;20630;-48
2022/04/29 04:46:46;;;;;;;11.80;9.98;;;4.90;99.90;;;;;;5080899;28;20043;-46
2022/04/29 04:49:13;;;;;;;17.67;9.80;;;5.00;99.90;;;;;;5101791;28;20046;-51
2022/04/29 04:51:39;;;;;;;14.27;10.27;;;5.00;99.90;;;;;;5100979;28;20076;-51
2022/04/29 04:54:05;;;;;;;17.13;10.48;;;5.10;99.90;;;;;;5101451;28;20054;-49
2022/04/29 04:56:31;;;;;;;14.75;10.25;;;5.20;99.90;;;;;;5101297;28;20043;-47
2022/04/29 04:58:57;;;;;;;14.98;10.35;;;5.20;99.90;;;;;;5079483;28;20047;-47
2022/04/29 05:01:23;;;;;;;14.25;9.45;;;5.30;99.90;;;;;;5089869;28;20580;-51
2022/04/29 05:03:49;;;;;;;14.25;10.15;;;5.30;99.90;;;;;;5087918;28;20052;-51
2022/04/29 05:06:15;;;;;;;11.55;9.25;;;5.40;99.90;;;;;;5083676;28;20066;-51
2022/04/29 05:08:40;;;;;;;13.55;9.35;;;5.50;99.90;;;;;;5093055;28;20056;-51
2022/04/29 05:11:07;;;;;;;14.40;9.45;;;5.50;99.90;;;;;;5091302;28;20052;-46
2022/04/29 05:13:32;;;;;;;13.02;9.60;;;5.40;99.90;;;;;;5089952;28;20059;-51
2022/04/29 05:15:58;;;;;;;12.48;8.98;;;5.30;99.90;;;;;;5101190;28;20429;-51
2022/04/29 05:18:24;;;;;;;13.77;9.10;;;5.40;99.90;;;;;;5102101;28;20058;-51
2022/04/29 05:20:50;;;;;;;14.93;9.73;;;5.40;99.90;;;;;;5096950;28;20032;-52
2022/04/29 05:23:15;;;;;;;12.45;9.30;;;5.40;99.90;;;;;;5087845;28;20452;-50
2022/04/29 05:25:41;;;;;;;14.05;9.57;;;5.50;99.90;;;;;;5102079;28;20086;-49
2022/04/29 05:28:07;;;;;;;16.20;11.02;;;5.50;99.90;;;;;;5080667;28;20950;-50
2022/04/29 05:30:34;;;;;;;14.70;9.00;;;5.50;99.90;;;;;;5090126;28;20197;-54
2022/04/29 05:33:01;;;;;;;13.27;9.45;;;5.60;99.90;;;;;;5099827;28;20047;-47
2022/04/29 05:35:27;;;;;;;14.73;10.27;;;5.70;99.90;;;;;;5100940;28;20043;-49
2022/04/29 05:37:53;;;;;;;14.30;9.48;;;5.80;99.90;;;;;;5100817;28;20457;-48
2022/04/29 05:43:05;;;;;;;14.50;9.38;;;5.90;99.90;;;;;;5100176;28;20047;-52
2022/04/29 05:45:31;;;;;;;13.82;10.18;;;6.00;99.90;;;;;;5082715;28;20499;-51
2022/04/29 05:47:57;;;;;;;13.65;10.48;;;6.20;99.90;;;;;;5100485;28;20468;-42
2022/04/29 05:50:22;;;;;;;13.07;10.25;;;6.30;99.90;;;;;;5100596;28;20047;-51
2022/04/29 05:52:48;;;;;;;15.18;10.00;;;6.40;99.90;;;;;;5099869;28;20051;-51
2022/04/29 05:55:14;;;;;;;14.73;10.85;;;6.50;99.90;;;;;;5100719;28;20047;-50
2022/04/29 05:57:40;;;;;;;13.52;9.95;;;6.60;99.90;;;;;;5081803;28;20051;-51
2022/04/29 06:00:07;;;;;;;11.35;10.13;;;6.80;99.90;;;;;;5100444;28;20105;-50
2022/04/29 06:02:33;;;;;;;26.25;12.82;;;7.00;99.90;;;;;;5099821;28;20044;-47
2022/04/29 06:05:03;;;;;;;12.05;9.93;;;7.30;99.90;;;;;;5081238;28;20433;-52
2022/04/29 06:07:29;;;;;;;16.00;10.63;;;7.60;99.90;;;;;;5081071;28;20056;-47
2022/04/29 06:09:55;;;;;;;11.18;10.15;;;7.80;99.90;;;;;;5093970;28;20526;-48
2022/04/29 06:12:20;;;;;;;11.25;9.45;;;8.00;99.90;;;;;;5100535;28;20474;-50
2022/04/29 06:14:46;;;;;;;15.90;9.93;;;8.20;99.90;;;;;;5100680;28;20046;-49
2022/04/29 06:17:13;;;;;;;14.95;9.13;;;8.60;99.90;;;;;;5093439;28;20505;-50
2022/04/29 06:19:39;;;;;;;13.13;8.95;;;8.90;99.90;;;;;;5099502;28;20051;-50
2022/04/29 06:22:05;;;;;;;10.02;9.02;;;9.40;99.90;;;;;;5100257;28;20082;-52
2022/04/29 06:24:32;;;;;;;14.10;9.32;;;9.90;99.90;;;;;;5079966;28;20048;-50
2022/04/29 06:26:58;;;;;;;11.57;9.07;;;10.30;99.90;;;;;;5101376;28;20056;-50
2022/04/29 06:29:24;;;;;;;13.30;8.32;;;10.90;99.90;;;;;;5081285;28;20087;-50
2022/04/29 06:31:50;;;;;;;11.27;8.57;;;11.30;99.90;;;;;;5089566;28;20073;-49
2022/04/29 06:34:16;;;;;;;9.68;8.40;;;11.40;99.90;;;;;;5099790;28;20047;-50
2022/04/29 06:36:42;;;;;;;14.60;9.98;;;11.40;99.90;;;;;;5098045;28;20055;-53
2022/04/29 06:39:08;;;;;;;13.93;8.85;;;11.20;99.90;;;;;;5100098;28;20067;-54
2022/04/29 06:41:35;;;;;;;9.20;8.15;;;11.10;99.90;;;;;;5085404;28;20336;-50
2022/04/29 06:44:04;;;;;;;8.02;7.13;;;11.00;99.90;;;;;;5078282;28;20167;-53
2022/04/29 06:46:30;;;;;;;9.75;7.10;;;11.00;99.90;;;;;;5094437;28;20381;-47
2022/04/29 06:48:55;;;;;;;10.48;6.85;;;11.00;99.90;;;;;;5096580;28;20474;-48
2022/04/29 06:51:25;;;;;;;10.77;7.15;;;11.00;99.90;;;;;;5095481;28;20040;-50
2022/04/29 06:53:51;;;;;;;9.95;6.70;;;11.10;99.90;;;;;;5092985;28;20122;-55
2022/04/29 06:56:17;;;;;;;9.50;6.28;;;11.10;99.90;;;;;;5095117;28;20122;-50
2022/04/29 06:58:43;;;;;;;12.68;6.07;;;11.20;99.90;;;;;;5093727;28;20133;-50
2022/04/29 07:01:10;;;;;;;8.52;5.95;;;11.40;99.90;;;;;;5079958;28;20085;-51
2022/04/29 07:03:38;;;;;;;10.55;5.78;;;11.50;99.90;;;;;;5094246;28;20102;-50
2022/04/29 07:06:06;;;;;;;13.23;5.07;;;11.60;99.90;;;;;;5093420;28;20525;-53
2022/04/29 07:08:34;;;;;;;8.55;5.07;;;11.90;99.90;;;;;;5092697;28;20553;-50
2022/04/29 07:11:00;;;;;;;7.57;4.43;;;12.30;99.90;;;;;;5094361;28;20047;-51
2022/04/29 07:13:26;;;;;;;10.68;4.57;;;12.60;99.90;;;;;;5078814;28;20047;-52
2022/04/29 07:15:52;;;;;;;7.60;3.58;;;13.00;99.90;;;;;;5098896;28;20488;-53
2022/04/29 07:18:18;;;;;;;6.03;3.65;;;13.30;99.90;;;;;;5096472;28;20051;-52
2022/04/29 07:20:44;;;;;;;8.82;3.40;;;13.30;99.90;;;;;;5084287;28;20123;-53
2022/04/29 07:23:10;;;;;;;7.18;4.13;;;13.20;99.90;;;;;;5092708;28;20540;-54
2022/04/29 07:25:41;;;;;;;7.10;3.13;;;13.00;99.90;;;;;;5086717;28;20040;-52
2022/04/29 07:28:07;;;;;;;7.13;3.50;;;13.10;99.90;;;;;;5096904;28;20466;-50
2022/04/29 07:30:33;;;;;;;5.57;2.08;;;12.90;99.90;;;;;;5084883;28;20048;-51
2022/04/29 07:32:59;;;;;;;5.13;2.28;;;13.00;99.90;;;;;;5098813;28;20412;-50
2022/04/29 07:43:38;;;;;;;6.65;2.60;;;13.00;99.90;;;;;;5079673;28;20052;-54
2022/04/29 07:46:04;;;;;;;8.98;3.03;;;12.90;99.90;;;;;;5080232;28;20132;-44
2022/04/29 07:48:31;;;;;;;10.90;2.67;;;12.70;99.90;;;;;;5093978;28;20055;-51
2022/04/29 07:50:57;;;;;;;8.85;2.10;;;12.80;99.90;;;;;;5098676;28;20039;-54
2022/04/29 07:53:23;;;;;;;7.72;2.05;;;13.00;99.90;;;;;;5080179;28;20044;-48
2022/04/29 07:55:49;;;;;;;7.47;2.55;;;13.10;99.90;;;;;;5097834;28;20054;-55
2022/04/29 07:58:15;;;;;;;7.22;2.38;;;13.40;99.90;;;;;;5098194;28;20094;-51
2022/04/29 08:00:41;;;;;;;7.10;2.92;;;13.50;99.90;;;;;;5098364;28;20852;-52
2022/04/29 08:03:07;;;;;;;6.45;2.83;;;13.20;99.90;;;;;;5098308;27;20109;-51
2022/04/29 08:05:33;;;;;;;7.50;3.05;;;12.90;99.90;;;;;;5102630;28;20048;-50
2022/04/29 08:08:01;;;;;;;8.30;3.28;;;12.60;99.90;;;;;;5101297;28;20490;-51
2022/04/29 08:10:29;;;;;;;6.10;3.42;;;12.40;99.90;;;;;;5101705;28;20044;-51
2022/04/29 08:12:57;;;;;;;6.03;3.20;;;11.90;99.90;;;;;;5103129;28;20040;-52
2022/04/29 08:15:27;;;;;;;7.47;2.78;;;12.00;99.90;;;;;;5102470;28;20288;-51
2022/04/29 08:17:53;;;;;;;8.13;3.25;;;12.20;99.90;;;;;;5103455;28;20051;-50
2022/04/29 08:20:20;;;;;;;4.18;2.92;;;11.90;99.90;;;;;;5084137;28;20081;-51
2022/04/29 08:22:46;;;;;;;6.45;3.42;;;11.80;99.90;;;;;;5101849;28;20047;-51
2022/04/29 08:25:12;;;;;;;5.10;2.80;;;11.80;99.90;;;;;;5102040;28;20516;-52
2022/04/29 08:27:38;;;;;;;8.15;2.90;;;11.80;99.90;;;;;;5101338;28;20067;-51
2022/04/29 08:30:07;;;;;;;4.10;2.78;;;11.90;99.90;;;;;;5083926;28;20489;-50
2022/04/29 08:32:41;;;;;;;7.38;3.28;;;11.90;99.90;;;;;;5092904;28;20036;-51
2022/04/29 08:35:09;;;;;;;7.15;3.28;;;11.80;99.90;;;;;;5081379;28;20055;-52
2022/04/29 08:37:39;;;;;;;5.93;3.50;;;11.80;99.90;;;;;;5077204;28;20110;-54
2022/04/29 08:40:06;;;;;;;5.03;3.10;;;11.80;99.90;;;;;;5102388;28;20051;-49
2022/04/29 08:42:37;;;;;;;10.57;4.25;;;11.70;99.90;;;;;;5098712;28;20048;-48
2022/04/29 08:45:15;;;;;;;7.82;3.72;;;11.60;99.90;;;;;;5101547;28;20044;-49
2022/04/29 08:47:42;;;;;;;7.18;3.85;;;11.70;99.90;;;;;;5078984;28;20056;-51
2022/04/29 08:50:15;;;;;;;5.55;3.50;;;11.60;99.90;;;;;;5098608;28;20513;-52
2022/04/29 08:52:41;;;;;;;8.27;3.80;;;11.70;99.90;;;;;;5101453;28;20044;-51
2022/04/29 09:00:41;;;;;;;7.30;3.10;;;11.50;99.90;;;;;;5094416;28;20161;-48
2022/04/29 09:03:21;;;;;;;7.53;2.92;;;11.60;99.90;;;;;;5089632;28;20113;-52
2022/04/29 09:05:48;;;;;;;6.00;3.20;;;11.60;99.90;;;;;;5100407;28;20044;-51
2022/04/29 10:16:33;;;;;;;7.82;4.90;;;11.10;99.90;;;;;;5088230;28;20809;-48
2022/04/29 10:22:14;;;;;;;7.20;4.13;;;11.00;99.90;;;;;;5018042;28;20087;-54
2022/04/29 10:24:41;;;;;;;12.57;6.45;;;11.10;99.90;;;;;;5017699;28;20146;-54
2022/04/29 10:27:07;;;;;;;6.13;4.30;;;11.10;99.90;;;;;;5016419;28;20560;-51
2022/04/29 10:29:45;;;;;;;8.02;4.88;;;11.40;99.90;;;;;;5017466;28;20081;-48
2022/04/29 10:32:10;;;;;;;7.90;4.40;;;11.40;99.90;;;;;;5013330;28;20057;-55
2022/04/29 10:34:36;;;;;;;7.20;4.18;;;11.30;99.90;;;;;;5016691;28;20053;-49
2022/04/29 10:37:11;;;;;;;9.05;4.40;;;11.50;99.90;;;;;;5016644;28;20045;-51
2022/04/29 10:39:37;;;;;;;5.95;4.30;;;11.50;99.90;;;;;;5016892;28;20203;-51
2022/04/29 10:42:09;;;;;;;9.25;4.90;;;11.60;99.90;;;;;;5016108;28;20533;-50
2022/04/29 10:45:02;;;;;;;7.93;4.60;;;11.80;99.90;;;;;;5016158;28;20627;-49
2022/04/29 10:47:40;;;;;;;9.02;4.57;;;11.80;99.90;;;;;;5016877;28;20393;-49
2022/04/29 10:50:31;;;;;;;6.35;4.20;;;11.60;99.90;;;;;;5012899;28;20053;-47
2022/04/29 10:53:03;;;;;;;6.82;4.20;;;12.00;99.90;;;;;;5038328;28;20521;-52
2022/04/29 10:55:29;;;;;;;5.70;4.20;;;12.20;99.90;;;;;;5078147;28;20080;-54
2022/04/29 10:58:03;;;;;;;6.50;4.15;;;12.30;99.90;;;;;;5077424;28;20605;-47
2022/04/29 11:00:29;;;;;;;8.13;4.00;;;12.30;99.90;;;;;;5093031;28;20582;-52
2022/04/29 11:02:55;;;;;;;6.03;4.10;;;12.10;99.90;;;;;;5099479;28;20404;-46
2022/04/29 11:05:34;;;;;;;7.82;4.63;;;12.00;99.90;;;;;;5098637;28;20486;-48
2022/04/29 11:08:10;;;;;;;7.38;4.78;;;12.00;99.90;;;;;;5084695;28;20043;-49
2022/04/29 11:10:53;;;;;;;5.32;4.10;;;11.90;99.90;;;;;;5063061;28;20056;-51
2022/04/29 11:13:22;;;;;;;8.00;4.88;;;12.00;99.90;;;;;;5092373;28;20131;-54
2022/04/29 11:15:48;;;;;;;9.52;5.10;;;11.80;99.90;;;;;;5095080;28;20581;-50
2022/04/29 11:18:26;;;;;;;6.70;4.88;;;11.80;99.90;;;;;;5100951;28;20565;-48
2022/04/29 11:20:57;;;;;;;8.25;5.15;;;11.70;99.90;;;;;;5100155;28;20048;-50
2022/04/29 11:26:17;;;;;;;11.18;5.57;;;11.70;99.90;;;;;;5110001;28;20047;-51
2022/04/29 11:28:42;;;;;;;7.45;4.97;;;11.60;99.90;;;;;;5081306;28;20056;-50
2022/04/29 11:31:10;;;;;;;9.48;4.20;;;11.50;99.90;;;;;;5107449;28;20047;-53
2022/04/29 11:33:37;;;;;;;8.82;4.07;;;11.40;99.90;;;;;;5104078;28;20055;-50
2022/04/29 11:36:05;;;;;;;7.30;4.68;;;11.40;99.90;;;;;;5095742;28;20154;-50
2022/04/29 11:38:38;;;;;;;5.95;4.30;;;11.20;99.90;;;;;;5100056;28;20122;-49
2022/04/29 11:41:05;;;;;;;8.15;5.10;;;11.00;99.90;;;;;;5102262;28;20565;-48
2022/04/29 11:43:30;;;;;;;7.05;5.30;;;11.20;99.90;;;;;;5082747;28;20055;-49
2022/04/29 11:46:02;;;;;;;9.35;5.00;;;11.20;99.90;;;;;;5102427;28;20055;-51
2022/04/29 11:48:28;;;;;;;10.80;5.03;;;11.00;99.90;;;;;;5102621;27;20523;-50
2022/04/29 11:50:57;;;;;;;10.18;5.15;;;10.80;99.90;;;;;;5103201;28;20533;-52
2022/04/29 11:53:23;;;;;;;9.30;5.90;;;10.60;99.90;;;;;;5080674;28;20086;-48
2022/04/29 11:55:51;;;;;;;6.70;5.43;;;10.60;99.90;;;;;;5093838;28;20035;-48
2022/04/29 11:58:17;;;;;;;8.70;5.22;;;10.70;99.90;;;;;;5085305;28;20528;-43
2022/04/29 12:00:49;;;;;;;6.68;5.20;;;10.70;99.90;;;;;;5101484;28;20058;-50
2022/04/29 12:03:20;;;;;;;10.70;4.97;;;10.90;99.90;;;;;;5103171;28;20135;-51
2022/04/29 12:05:46;;;;;;;11.75;4.65;;;10.90;99.90;;;;;;5101687;28;20770;-50
2022/04/29 12:08:12;;;;;;;9.82;4.78;;;10.90;99.90;;;;;;5102175;28;20047;-50
2022/04/29 12:10:38;;;;;;;9.73;5.57;;;11.00;99.90;;;;;;5100809;28;20071;-47
2022/04/29 12:13:05;;;;;;;8.75;4.93;;;11.20;99.90;;;;;;5102830;28;20040;-48
2022/04/29 12:15:35;;;;;;;13.02;6.25;;;11.10;99.90;;;;;;5101875;28;20047;-49
2022/04/29 12:18:08;;;;;;;12.50;5.78;;;11.30;99.90;;;;;;5101229;28;20064;-50
2022/04/29 12:20:35;;;;;;;8.82;5.00;;;11.50;99.90;;;;;;5103009;28;20056;-50
2022/04/29 12:23:10;;;;;;;8.57;4.82;;;11.40;99.90;;;;;;5103218;28;20054;-50
2022/04/29 12:25:45;;;;;;;5.70;4.07;;;11.50;99.90;;;;;;5102034;28;20051;-48
2022/04/29 12:28:11;;;;;;;9.30;3.85;;;11.60;99.90;;;;;;5081303;28;20070;-51
2022/04/29 12:36:12;;;;;;;6.68;3.75;;;12.00;99.90;;;;;;5102658;28;20050;-47
2022/04/29 12:38:40;;;;;;;8.02;3.85;;;12.00;99.90;;;;;;5083274;28;20058;-44
2022/04/29 12:41:27;;;;;;;6.00;4.30;;;12.00;99.90;;;;;;5080868;28;20046;-49
2022/04/29 12:44:05;;;;;;;9.73;4.25;;;12.10;99.90;;;;;;5100121;28;20124;-53
2022/04/29 12:46:31;;;;;;;8.48;4.07;;;12.20;99.90;;;;;;5106102;28;20082;-51
2022/04/29 12:48:57;;;;;;;5.95;3.42;;;12.20;99.90;;;;;;5103210;28;20631;-51
2022/04/29 12:51:28;;;;;;;10.05;3.97;;;12.30;99.90;;;;;;5103552;28;20050;-51
2022/04/29 12:53:55;;;;;;;9.27;4.05;;;12.30;99.90;;;;;;5083699;28;20055;-51
2022/04/29 12:56:28;;;;;;;7.85;4.65;;;12.40;99.90;;;;;;5083532;28;20062;-49
2022/04/29 12:58:54;;;;;;;7.07;3.88;;;12.30;99.90;;;;;;5097676;28;20047;-53
2022/04/29 13:01:20;;;;;;;8.23;3.80;;;12.40;99.90;;;;;;5082254;28;20083;-53
2022/04/29 13:04:04;;;;;;;6.82;3.90;;;12.50;99.90;;;;;;5101183;28;20570;-49
2022/04/29 13:06:31;;;;;;;7.13;4.28;;;12.50;99.90;;;;;;5095114;28;20047;-48
2022/04/29 13:08:58;;;;;;;7.53;3.78;;;12.40;99.90;;;;;;5098219;28;20047;-49
2022/04/29 13:11:25;;;;;;;6.15;4.40;;;12.60;99.90;;;;;;5097505;28;20051;-51
2022/04/29 13:13:53;;;;;;;6.82;4.47;;;12.80;99.90;;;;;;5084267;28;20061;-48
2022/04/29 13:16:20;;;;;;;6.57;4.25;;;12.70;99.90;;;;;;5102075;28;20051;-51
2022/04/29 13:18:46;;;;;;;13.85;4.45;;;12.90;99.90;;;;;;5081910;28;20060;-48
2022/04/29 13:21:13;;;;;;;7.05;4.30;;;12.90;99.90;;;;;;5081567;28;20075;-50
2022/04/29 13:23:41;;;;;;;6.78;4.28;;;13.00;99.90;;;;;;5082045;28;20089;-48
2022/04/29 13:26:08;;;;;;;7.18;3.92;;;13.10;99.90;;;;;;5079955;28;20442;-52
2022/04/29 13:28:37;;;;;;;4.80;3.92;;;13.00;99.90;;;;;;5082114;28;20466;-48
2022/04/29 13:31:04;;;;;;;28.52;9.80;;;13.10;99.90;;;;;;5080588;28;20134;-52
2022/04/29 13:33:30;;;;;;;4.80;3.45;;;13.00;99.90;;;;;;5076020;28;20065;-50
2022/04/29 13:35:56;;;;;;;5.47;3.90;;;12.90;99.90;;;;;;5081751;28;20105;-53
2022/04/29 13:38:23;;;;;;;5.47;3.80;;;12.60;99.90;;;;;;5079696;28;20052;-52
2022/04/29 13:40:49;;;;;;;8.00;3.38;;;12.40;99.90;;;;;;5076790;28;20067;-49
2022/04/29 13:43:16;;;;;;;6.88;3.72;;;12.20;99.90;;;;;;5075935;28;20098;-49
2022/04/29 13:45:44;;;;;;;6.97;3.78;;;12.40;99.90;;;;;;5080956;28;20059;-52
2022/04/29 13:48:14;;;;;;;7.20;3.28;;;12.60;99.90;;;;;;5079777;28;20051;-48
2022/04/29 13:50:45;;;;;;;6.07;3.67;;;12.70;99.90;;;;;;5070032;28;20055;-45
2022/04/29 13:53:11;;;;;;;10.57;4.05;;;12.40;99.90;;;;;;5078791;28;20148;-49
2022/04/29 13:55:50;;;;;;;8.27;4.03;;;12.20;99.90;;;;;;5079508;28;20055;-49
2022/04/29 13:58:17;;;;;;;6.95;3.25;;;12.10;99.90;;;;;;5081270;28;20040;-50
2022/04/29 14:00:45;;;;;;;7.57;3.42;;;12.20;99.90;;;;;;5075092;28;20063;-53
2022/04/29 14:03:11;;;;;;;6.90;3.85;;;12.20;99.90;;;;;;5071956;28;20118;-48
2022/04/29 14:05:37;;;;;;;9.25;3.80;;;12.20;99.90;;;;;;5080968;28;20039;-48
2022/04/29 14:08:03;;;;;;;6.22;3.42;;;12.20;99.90;;;;;;5076681;28;20055;-49
2022/04/29 14:10:29;;;;;;;7.80;3.95;;;12.30;99.90;;;;;;5079248;28;20364;-51
2022/04/29 14:12:55;;;;;;;6.60;4.03;;;12.40;99.90;;;;;;5070621;28;20040;-47
2022/04/29 14:15:21;;;;;;;7.65;3.92;;;12.40;99.90;;;;;;5072524;28;20044;-51
2022/04/29 14:17:47;;;;;;;9.52;4.90;;;12.30;99.90;;;;;;5091878;28;20052;-52
2022/04/29 14:20:13;;;;;;;9.20;4.40;;;12.10;99.90;;;;;;5100515;28;20573;-51
2022/04/29 14:22:40;;;;;;;8.75;4.15;;;12.00;99.90;;;;;;5089567;28;20112;-53
2022/04/29 14:25:08;;;;;;;12.65;4.65;;;11.80;99.90;;;;;;5100379;28;20050;-51
2022/04/29 14:27:34;;;;;;;10.48;4.85;;;11.60;99.90;;;;;;5082641;28;20094;-49